createdAt,value
2019-03-27T00:00:46.071Z,8.22
2019-03-27T00:03:18.461Z,8.21
2019-03-27T00:05:50.837Z,8.15
2019-03-27T00:08:23.221Z,8.17
2019-03-27T00:10:55.694Z,8.19
2019-03-27T00:13:28.083Z,8.21
2019-03-27T00:16:00.460Z,8.22
2019-03-27T00:18:32.880Z,8.19
2019-03-27T00:21:05.353Z,8.16
2019-03-27T00:23:37.739Z,8.20
2019-03-27T00:26:10.126Z,8.21
2019-03-27T00:28:42.527Z,8.21
2019-03-27T00:31:14.902Z,8.20
2019-03-27T00:33:47.290Z,8.16
2019-03-27T00:36:20.764Z,8.16
2019-03-27T00:38:53.161Z,8.14
2019-03-27T00:41:25.561Z,8.13
2019-03-27T00:43:57.928Z,8.12
2019-03-27T00:46:30.285Z,8.10
2019-03-27T00:49:03.086Z,8.10
2019-03-27T00:51:35.471Z,8.09
2019-03-27T00:54:07.843Z,8.09
2019-03-27T00:56:40.225Z,8.11
2019-03-27T00:59:12.643Z,8.12
2019-03-27T01:01:45.088Z,8.11
2019-03-27T01:04:17.510Z,8.09
2019-03-27T01:06:51.126Z,8.06
2019-03-27T01:09:23.674Z,8.07
2019-03-27T01:11:56.212Z,8.09
2019-03-27T01:14:28.717Z,8.07
2019-03-27T01:17:01.096Z,8.08
2019-03-27T01:19:34.565Z,8.08
2019-03-27T01:22:06.931Z,8.06
2019-03-27T01:24:39.318Z,8.06
2019-03-27T01:27:11.685Z,8.05
2019-03-27T01:29:45.131Z,8.03
2019-03-27T01:32:17.496Z,8.04
2019-03-27T01:34:49.880Z,8.08
2019-03-27T01:37:22.275Z,8.09
2019-03-27T01:39:54.671Z,8.10
2019-03-27T01:42:27.075Z,8.11
2019-03-27T01:44:59.887Z,8.11
2019-03-27T01:47:32.243Z,8.08
2019-03-27T01:50:05.119Z,8.07
2019-03-27T01:52:37.497Z,8.02
2019-03-27T01:55:10.555Z,8.00
2019-03-27T01:57:42.953Z,7.99
2019-03-27T02:00:15.358Z,7.97
2019-03-27T02:02:47.725Z,7.97
2019-03-27T02:05:20.160Z,7.96
2019-03-27T02:07:52.534Z,7.96
2019-03-27T02:10:24.954Z,7.96
2019-03-27T02:12:57.351Z,8.00
2019-03-27T02:15:29.830Z,7.93
2019-03-27T02:18:02.248Z,7.91
2019-03-27T02:20:34.904Z,7.92
2019-03-27T02:23:07.294Z,7.94
2019-03-27T02:25:39.693Z,7.96
2019-03-27T02:28:12.086Z,7.94
2019-03-27T02:30:44.517Z,7.95
2019-03-27T02:33:16.911Z,7.93
2019-03-27T02:35:49.263Z,7.89
2019-03-27T02:38:21.661Z,7.84
2019-03-27T02:40:54.032Z,7.84
2019-03-27T02:43:26.426Z,7.83
2019-03-27T02:45:58.784Z,7.80
2019-03-27T02:48:31.378Z,7.79
2019-03-27T02:51:03.767Z,7.82
2019-03-27T02:53:36.163Z,7.83
2019-03-27T02:56:08.512Z,7.82
2019-03-27T02:58:40.910Z,7.83
2019-03-27T03:01:13.292Z,7.83
2019-03-27T03:03:45.711Z,7.84
2019-03-27T03:06:18.052Z,7.82
2019-03-27T03:08:50.461Z,7.84
2019-03-27T03:11:22.837Z,7.85
2019-03-27T03:13:55.221Z,7.85
2019-03-27T03:16:41.407Z,7.82
2019-03-27T03:19:01.709Z,7.78
2019-03-27T03:21:34.055Z,7.76
2019-03-27T03:24:06.447Z,7.74
2019-03-27T03:26:40.283Z,7.72
2019-03-27T03:29:12.670Z,7.70
2019-03-27T03:31:45.039Z,7.69
2019-03-27T03:34:17.496Z,7.69
2019-03-27T03:36:49.832Z,7.72
2019-03-27T03:39:22.301Z,7.70
2019-03-27T03:41:54.687Z,7.70
2019-03-27T03:44:27.090Z,7.68
2019-03-27T03:47:00.645Z,7.67
2019-03-27T03:49:33.239Z,7.66
2019-03-27T03:52:06.097Z,7.63
2019-03-27T03:54:38.842Z,7.62
2019-03-27T03:57:13.758Z,7.61
2019-03-27T03:59:47.042Z,7.65
2019-03-27T04:02:20.898Z,7.64
2019-03-27T04:04:54.188Z,7.62
2019-03-27T04:07:26.545Z,7.62
2019-03-27T04:09:58.986Z,7.58
2019-03-27T04:12:31.495Z,7.58
2019-03-27T04:15:03.874Z,7.58
2019-03-27T04:17:36.224Z,7.59
2019-03-27T04:20:09.289Z,7.61
2019-03-27T04:22:41.663Z,7.60
2019-03-27T04:25:14.640Z,7.57
2019-03-27T04:27:46.998Z,7.53
2019-03-27T04:30:19.388Z,7.48
2019-03-27T04:32:51.780Z,7.47
2019-03-27T04:35:24.160Z,7.44
2019-03-27T04:37:56.545Z,7.41
2019-03-27T04:40:28.917Z,7.40
2019-03-27T04:43:01.287Z,7.39
2019-03-27T04:45:33.695Z,7.47
2019-03-27T04:48:06.070Z,7.47
2019-03-27T04:50:38.442Z,7.50
2019-03-27T04:53:11.895Z,7.53
2019-03-27T04:55:44.359Z,7.55
2019-03-27T04:58:16.791Z,7.57
2019-03-27T05:00:50.288Z,7.57
2019-03-27T05:03:22.654Z,7.57
2019-03-27T05:05:55.061Z,7.55
2019-03-27T05:08:27.428Z,7.52
2019-03-27T05:10:59.856Z,7.48
2019-03-27T05:13:32.266Z,7.48
2019-03-27T05:16:04.676Z,7.49
2019-03-27T05:18:37.085Z,7.40
2019-03-27T05:21:09.450Z,7.37
2019-03-27T05:23:41.841Z,7.35
2019-03-27T05:26:14.191Z,7.31
2019-03-27T05:28:46.612Z,7.29
2019-03-27T05:31:18.964Z,7.31
2019-03-27T05:33:51.353Z,7.32
2019-03-27T05:36:23.796Z,7.33
2019-03-27T05:38:56.174Z,7.34
2019-03-27T05:41:28.548Z,7.38
2019-03-27T05:44:00.969Z,7.41
2019-03-27T05:46:33.366Z,7.40
2019-03-27T05:49:06.843Z,7.42
2019-03-27T05:51:39.201Z,7.43
2019-03-27T05:54:11.575Z,7.50
2019-03-27T05:56:43.935Z,7.50
2019-03-27T05:59:16.356Z,7.52
2019-03-27T06:01:48.810Z,7.54
2019-03-27T06:04:21.198Z,7.61
2019-03-27T06:06:53.545Z,7.62
2019-03-27T06:09:25.993Z,7.59
2019-03-27T06:11:58.451Z,7.57
2019-03-27T06:14:30.803Z,7.61
2019-03-27T06:17:03.190Z,7.61
2019-03-27T06:19:37.058Z,7.66
2019-03-27T06:22:09.525Z,7.73
2019-03-27T06:24:41.909Z,7.75
2019-03-27T06:27:14.291Z,7.81
2019-03-27T06:29:46.712Z,7.79
2019-03-27T06:32:19.180Z,7.79
2019-03-27T06:34:51.603Z,7.80
2019-03-27T06:37:24.046Z,7.89
2019-03-27T06:39:56.436Z,7.97
2019-03-27T06:42:28.801Z,8.01
2019-03-27T06:45:01.210Z,8.07
2019-03-27T06:47:33.606Z,8.06
2019-03-27T06:50:07.223Z,8.03
2019-03-27T06:52:39.618Z,8.13
2019-03-27T06:55:12.218Z,8.14
2019-03-27T06:57:44.590Z,8.21
2019-03-27T07:00:17.413Z,8.30
2019-03-27T07:02:49.808Z,8.41
2019-03-27T07:05:22.315Z,8.45
2019-03-27T07:07:54.728Z,8.52
2019-03-27T07:10:27.121Z,8.53
2019-03-27T07:12:59.638Z,8.55
2019-03-27T07:15:35.441Z,8.66
2019-03-27T07:18:06.125Z,8.81
2019-03-27T07:20:40.954Z,8.96
2019-03-27T07:23:13.742Z,9.11
2019-03-27T07:25:46.135Z,9.25
2019-03-27T07:28:18.491Z,9.44
2019-03-27T07:30:50.970Z,9.65
2019-03-27T07:33:24.408Z,9.85
2019-03-27T07:35:56.832Z,10.12
2019-03-27T07:38:29.247Z,10.77
2019-03-27T07:41:01.650Z,11.39
2019-03-27T07:43:34.040Z,12.08
2019-03-27T07:46:06.748Z,12.34
2019-03-27T07:48:39.177Z,12.25
2019-03-27T07:51:11.595Z,12.31
2019-03-27T07:53:44.015Z,12.50
2019-03-27T07:56:16.491Z,12.66
2019-03-27T07:58:48.921Z,12.91
2019-03-27T08:01:21.507Z,12.99
2019-03-27T08:03:53.942Z,13.03
2019-03-27T08:06:26.335Z,13.04
2019-03-27T08:08:58.748Z,13.17
2019-03-27T08:11:31.393Z,13.46
2019-03-27T08:14:03.877Z,13.80
2019-03-27T08:16:36.306Z,13.69
2019-03-27T08:19:08.722Z,13.50
2019-03-27T08:21:41.148Z,13.81
2019-03-27T08:24:13.557Z,14.03
2019-03-27T08:26:46.104Z,14.38
2019-03-27T08:29:18.493Z,14.57
2019-03-27T08:31:50.918Z,14.51
2019-03-27T08:34:23.465Z,14.62
2019-03-27T08:36:55.870Z,14.60
2019-03-27T08:39:28.355Z,14.53
2019-03-27T08:42:00.803Z,14.33
2019-03-27T08:44:33.231Z,14.25
2019-03-27T08:47:07.442Z,14.20
2019-03-27T08:49:40.983Z,13.96
2019-03-27T08:52:13.480Z,13.77
2019-03-27T08:54:46.402Z,13.59
2019-03-27T08:57:18.770Z,13.41
2019-03-27T08:59:51.203Z,13.29
2019-03-27T09:02:23.587Z,13.29
2019-03-27T09:04:56.090Z,13.36
2019-03-27T09:07:28.642Z,13.91
2019-03-27T09:10:01.070Z,14.36
2019-03-27T09:12:33.515Z,14.70
2019-03-27T09:15:06.428Z,14.89
2019-03-27T09:17:38.845Z,15.00
2019-03-27T09:20:11.901Z,15.07
2019-03-27T09:22:44.316Z,15.05
2019-03-27T09:25:16.954Z,14.96
2019-03-27T09:27:49.379Z,14.76
2019-03-27T09:30:22.918Z,14.01
2019-03-27T09:32:56.474Z,14.13
2019-03-27T09:35:28.900Z,13.94
2019-03-27T09:38:01.446Z,13.88
2019-03-27T09:40:35.049Z,13.70
2019-03-27T09:43:07.459Z,13.84
2019-03-27T09:45:39.895Z,14.20
2019-03-27T09:48:12.325Z,14.50
2019-03-27T09:50:44.727Z,14.46
2019-03-27T09:53:17.182Z,14.68
2019-03-27T09:55:49.630Z,14.80
2019-03-27T09:58:22.127Z,14.82
2019-03-27T10:01:01.156Z,14.71
2019-03-27T10:03:33.659Z,14.38
2019-03-27T10:06:06.108Z,14.23
2019-03-27T10:08:38.675Z,14.11
2019-03-27T10:11:11.050Z,14.05
2019-03-27T10:13:43.501Z,14.01
2019-03-27T10:16:16.008Z,13.93
2019-03-27T10:18:48.446Z,13.84
2019-03-27T10:21:20.860Z,13.77
2019-03-27T10:23:53.348Z,13.58
2019-03-27T10:26:25.704Z,13.44
2019-03-27T10:28:58.107Z,13.44
2019-03-27T10:31:30.545Z,13.39
2019-03-27T10:34:02.984Z,13.27
2019-03-27T10:36:35.382Z,13.12
2019-03-27T10:39:09.593Z,12.95
2019-03-27T10:41:41.956Z,13.04
2019-03-27T10:44:17.403Z,13.17
2019-03-27T10:46:48.519Z,13.31
2019-03-27T10:49:20.983Z,13.34
2019-03-27T10:51:53.716Z,13.24
2019-03-27T10:54:26.130Z,13.32
2019-03-27T10:56:58.494Z,13.31
2019-03-27T10:59:30.921Z,13.17
2019-03-27T11:02:03.399Z,13.11
2019-03-27T11:04:35.806Z,13.05
2019-03-27T11:07:08.264Z,13.03
2019-03-27T11:09:40.756Z,13.04
2019-03-27T11:12:13.138Z,13.01
2019-03-27T11:14:45.556Z,12.92
2019-03-27T11:17:17.930Z,12.94
2019-03-27T11:19:50.495Z,12.90
2019-03-27T11:22:22.901Z,12.66
2019-03-27T11:24:55.300Z,12.68
2019-03-27T11:27:27.776Z,12.78
2019-03-27T11:30:00.377Z,12.86
2019-03-27T11:32:32.897Z,13.06
2019-03-27T11:35:06.184Z,13.14
2019-03-27T11:37:38.581Z,13.23
2019-03-27T11:40:11.368Z,13.15
2019-03-27T11:42:43.734Z,13.09
2019-03-27T11:45:16.220Z,13.24
2019-03-27T11:47:48.736Z,13.05
2019-03-27T11:50:21.142Z,13.20
2019-03-27T11:52:53.582Z,13.27
2019-03-27T11:55:25.995Z,13.51
2019-03-27T11:57:58.576Z,13.60
2019-03-27T12:00:30.995Z,13.39
2019-03-27T12:03:03.576Z,13.16
2019-03-27T12:05:36.061Z,13.08
2019-03-27T12:08:08.534Z,13.19
2019-03-27T12:10:40.985Z,13.29
2019-03-27T12:13:13.352Z,13.42
2019-03-27T12:15:46.990Z,13.54
2019-03-27T12:18:19.655Z,13.49
2019-03-27T12:20:58.773Z,13.24
2019-03-27T12:23:26.218Z,13.04
2019-03-27T12:25:58.627Z,13.18
2019-03-27T12:28:31.057Z,12.95
2019-03-27T12:31:03.481Z,13.10
2019-03-27T12:33:35.922Z,13.32
2019-03-27T12:36:08.377Z,13.46
2019-03-27T12:38:40.753Z,13.66
2019-03-27T12:41:13.197Z,13.61
2019-03-27T12:43:45.634Z,13.54
2019-03-27T12:46:18.054Z,13.62
2019-03-27T12:48:51.588Z,13.71
2019-03-27T12:51:23.999Z,13.94
2019-03-27T12:53:57.458Z,14.08
2019-03-27T12:56:29.914Z,14.03
2019-03-27T12:59:02.351Z,14.19
2019-03-27T13:01:34.778Z,14.38
2019-03-27T13:04:07.392Z,14.49
2019-03-27T13:06:39.880Z,14.64
2019-03-27T13:09:12.320Z,14.69
2019-03-27T13:11:45.166Z,14.70
2019-03-27T13:14:17.597Z,14.55
2019-03-27T13:16:52.316Z,14.40
2019-03-27T13:19:24.141Z,14.20
2019-03-27T13:21:56.569Z,14.12
2019-03-27T13:24:28.945Z,13.95
2019-03-27T13:27:01.340Z,13.65
2019-03-27T13:29:33.786Z,13.58
2019-03-27T13:32:06.650Z,13.57
2019-03-27T13:34:39.096Z,13.68
2019-03-27T13:37:11.488Z,13.83
2019-03-27T13:39:43.891Z,14.02
2019-03-27T13:42:16.310Z,14.27
2019-03-27T13:44:48.739Z,14.32
2019-03-27T13:47:21.151Z,14.17
2019-03-27T13:49:53.599Z,14.19
2019-03-27T13:52:26.051Z,14.24
2019-03-27T13:54:58.773Z,14.27
2019-03-27T13:57:31.156Z,14.38
2019-03-27T14:00:16.675Z,14.47
2019-03-27T14:02:49.062Z,14.44
2019-03-27T14:05:21.503Z,14.24
2019-03-27T14:07:54.032Z,13.97
2019-03-27T14:10:26.576Z,13.87
2019-03-27T14:12:59.184Z,13.80
2019-03-27T14:15:31.603Z,13.72
2019-03-27T14:18:04.063Z,13.83
2019-03-27T14:20:36.492Z,13.83
2019-03-27T14:23:08.888Z,13.75
2019-03-27T14:25:41.336Z,13.72
2019-03-27T14:28:13.745Z,13.88
2019-03-27T14:30:57.365Z,13.95
2019-03-27T14:33:29.788Z,13.73
2019-03-27T14:36:02.260Z,13.64
2019-03-27T14:38:34.657Z,13.45
2019-03-27T14:41:07.080Z,13.52
2019-03-27T14:43:39.497Z,13.57
2019-03-27T14:46:11.896Z,13.49
2019-03-27T14:48:44.295Z,13.29
2019-03-27T14:51:16.712Z,13.21
2019-03-27T14:53:49.111Z,13.24
2019-03-27T14:56:21.558Z,13.29
2019-03-27T14:58:53.956Z,13.27
2019-03-27T15:01:27.487Z,13.35
2019-03-27T15:03:59.869Z,13.30
2019-03-27T15:06:32.498Z,13.15
2019-03-27T15:09:06.127Z,13.12
2019-03-27T15:11:38.589Z,13.05
2019-03-27T15:14:11.053Z,13.07
2019-03-27T15:16:43.461Z,13.10
2019-03-27T15:19:15.950Z,13.12
2019-03-27T15:21:48.408Z,13.30
2019-03-27T15:24:20.839Z,13.44
2019-03-27T15:26:54.769Z,13.45
2019-03-27T15:29:28.246Z,13.41
2019-03-27T15:32:00.734Z,13.37
2019-03-27T15:34:33.321Z,13.39
2019-03-27T15:37:05.791Z,13.31
2019-03-27T15:39:38.279Z,13.22
2019-03-27T15:42:10.773Z,13.21
2019-03-27T15:44:44.449Z,13.24
2019-03-27T15:47:18.031Z,13.16
2019-03-27T15:49:50.635Z,13.17
2019-03-27T15:52:35.844Z,13.26
2019-03-27T15:54:57.169Z,13.24
2019-03-27T15:57:29.620Z,13.25
2019-03-27T16:00:02.119Z,13.20
2019-03-27T16:02:34.630Z,13.18
2019-03-27T16:05:09.098Z,13.18
2019-03-27T16:07:41.518Z,13.17
2019-03-27T16:10:14.454Z,13.19
2019-03-27T16:12:46.967Z,13.20
2019-03-27T16:15:19.515Z,13.18
2019-03-27T16:17:51.948Z,13.19
2019-03-27T16:20:24.550Z,13.27
2019-03-27T16:22:56.958Z,13.20
2019-03-27T16:25:29.477Z,13.10
2019-03-27T16:28:03.408Z,13.08
2019-03-27T16:30:37.764Z,12.88
2019-03-27T16:33:10.193Z,12.73
2019-03-27T16:35:42.721Z,12.71
2019-03-27T16:38:15.135Z,12.76
2019-03-27T16:40:50.360Z,12.73
2019-03-27T16:43:22.878Z,12.69
2019-03-27T16:45:55.326Z,12.69
2019-03-27T16:48:27.720Z,12.75
2019-03-27T16:51:00.277Z,12.79
2019-03-27T16:53:32.771Z,12.79
2019-03-27T16:56:05.488Z,12.81
2019-03-27T16:58:39.168Z,12.80
2019-03-27T17:01:11.584Z,12.62
2019-03-27T17:03:44.054Z,12.72
2019-03-27T17:06:16.903Z,12.55
2019-03-27T17:08:49.346Z,12.48
2019-03-27T17:11:21.776Z,12.40
2019-03-27T17:13:54.219Z,12.43
2019-03-27T17:16:26.749Z,12.33
2019-03-27T17:18:59.198Z,12.31
2019-03-27T17:21:31.734Z,12.29
2019-03-27T17:24:04.170Z,12.26
2019-03-27T17:26:36.608Z,12.16
2019-03-27T17:29:09.011Z,12.17
2019-03-27T17:31:41.484Z,12.13
2019-03-27T17:34:14.012Z,12.16
2019-03-27T17:36:46.433Z,12.15
2019-03-27T17:39:18.903Z,12.18
2019-03-27T17:41:51.569Z,12.19
2019-03-27T17:44:23.971Z,12.06
2019-03-27T17:46:56.437Z,12.05
2019-03-27T17:49:28.896Z,12.05
2019-03-27T17:52:02.392Z,11.97
2019-03-27T17:54:34.891Z,11.97
2019-03-27T17:57:07.346Z,11.89
2019-03-27T17:59:39.834Z,11.99
2019-03-27T18:02:12.285Z,11.94
2019-03-27T18:04:44.731Z,11.89
2019-03-27T18:07:18.276Z,11.91
2019-03-27T18:09:50.780Z,11.86
2019-03-27T18:12:23.186Z,11.81
2019-03-27T18:14:55.739Z,11.79
2019-03-27T18:17:28.189Z,11.78
2019-03-27T18:20:00.725Z,11.76
2019-03-27T18:22:33.142Z,11.76
2019-03-27T18:25:05.734Z,11.76
2019-03-27T18:27:38.184Z,11.68
2019-03-27T18:30:11.763Z,11.65
2019-03-27T18:32:45.405Z,11.57
2019-03-27T18:35:17.928Z,11.61
2019-03-27T18:37:50.342Z,11.51
2019-03-27T18:40:22.756Z,11.44
2019-03-27T18:42:55.175Z,11.34
2019-03-27T18:45:27.653Z,11.23
2019-03-27T18:48:00.160Z,11.18
2019-03-27T18:50:32.880Z,11.10
2019-03-27T18:53:05.462Z,11.06
2019-03-27T18:55:38.254Z,11.03
2019-03-27T18:58:10.852Z,11.00
2019-03-27T19:00:43.343Z,10.97
2019-03-27T19:03:15.797Z,10.89
2019-03-27T19:05:48.315Z,10.84
2019-03-27T19:08:20.742Z,10.78
2019-03-27T19:10:53.186Z,10.76
2019-03-27T19:13:25.692Z,10.75
2019-03-27T19:15:58.540Z,10.72
2019-03-27T19:18:30.995Z,10.72
2019-03-27T19:21:03.414Z,10.68
2019-03-27T19:23:35.789Z,10.62
2019-03-27T19:26:08.265Z,10.57
2019-03-27T19:28:40.792Z,10.54
2019-03-27T19:31:13.318Z,10.49
2019-03-27T19:33:45.797Z,10.38
2019-03-27T19:36:18.279Z,10.37
2019-03-27T19:38:50.704Z,10.34
2019-03-27T19:41:23.170Z,10.31
2019-03-27T19:43:55.731Z,10.29
2019-03-27T19:46:28.177Z,10.22
2019-03-27T19:49:00.667Z,10.17
2019-03-27T19:51:33.141Z,10.07
2019-03-27T19:54:07.710Z,9.99
2019-03-27T19:56:40.143Z,9.94
2019-03-27T19:59:14.391Z,9.87
2019-03-27T20:01:46.863Z,9.89
2019-03-27T20:04:19.309Z,9.83
2019-03-27T20:06:51.751Z,9.74
2019-03-27T20:09:25.317Z,9.65
2019-03-27T20:12:08.733Z,9.59
2019-03-27T20:14:42.489Z,9.54
2019-03-27T20:17:15.338Z,9.49
2019-03-27T20:19:48.913Z,9.39
2019-03-27T20:22:21.431Z,9.30
2019-03-27T20:24:54.014Z,9.25
2019-03-27T20:27:26.526Z,9.20
2019-03-27T20:29:59.047Z,9.13
2019-03-27T20:32:31.513Z,9.06
2019-03-27T20:35:04.216Z,8.99
2019-03-27T20:37:37.307Z,8.92
2019-03-27T20:40:10.300Z,8.87
2019-03-27T20:42:42.932Z,8.87
2019-03-27T20:45:15.856Z,8.75
2019-03-27T20:47:48.299Z,8.70
2019-03-27T20:50:21.228Z,8.69
2019-03-27T20:52:53.690Z,8.59
2019-03-27T20:55:30.673Z,8.51
2019-03-27T20:58:00.219Z,8.48
2019-03-27T21:00:32.670Z,8.43
2019-03-27T21:03:05.220Z,8.36
2019-03-27T21:05:37.698Z,8.29
2019-03-27T21:08:10.079Z,8.22
2019-03-27T21:10:42.520Z,8.13
2019-03-27T21:13:14.946Z,8.05
2019-03-27T21:15:47.359Z,7.98
2019-03-27T21:18:19.753Z,7.94
2019-03-27T21:20:52.218Z,7.87
2019-03-27T21:23:24.618Z,7.82
2019-03-27T21:25:58.072Z,7.76
2019-03-27T21:28:30.495Z,7.71
2019-03-27T21:31:03.965Z,7.66
2019-03-27T21:33:37.445Z,7.58
2019-03-27T21:36:09.849Z,7.56
2019-03-27T21:38:42.290Z,7.46
2019-03-27T21:41:14.689Z,7.39
2019-03-27T21:43:47.128Z,7.34
2019-03-27T21:46:19.539Z,7.28
2019-03-27T21:48:51.975Z,7.26
2019-03-27T21:51:24.418Z,7.22
2019-03-27T21:53:56.865Z,7.16
2019-03-27T21:56:29.229Z,7.14
2019-03-27T21:59:02.665Z,7.09
2019-03-27T22:01:35.106Z,7.05
2019-03-27T22:04:07.520Z,6.99
2019-03-27T22:06:40.167Z,6.94
2019-03-27T22:09:12.581Z,6.92
2019-03-27T22:11:45.077Z,6.89
2019-03-27T22:14:17.487Z,6.88
2019-03-27T22:16:49.901Z,6.87
2019-03-27T22:19:22.318Z,6.83
2019-03-27T22:21:54.724Z,6.76
2019-03-27T22:24:27.095Z,6.69
2019-03-27T22:26:59.612Z,6.68
2019-03-27T22:29:32.045Z,6.61
2019-03-27T22:32:04.410Z,6.58
2019-03-27T22:34:37.102Z,6.51
2019-03-27T22:37:09.525Z,6.47
2019-03-27T22:39:41.989Z,6.45
2019-03-27T22:42:14.373Z,6.38
2019-03-27T22:44:46.780Z,6.31
2019-03-27T22:47:19.186Z,6.31
2019-03-27T22:49:51.694Z,6.27
2019-03-27T22:52:24.047Z,6.26
2019-03-27T22:54:56.409Z,6.25
2019-03-27T22:57:28.771Z,6.20
2019-03-27T23:00:01.218Z,6.11
2019-03-27T23:02:35.351Z,6.09
2019-03-27T23:05:08.049Z,6.17
2019-03-27T23:07:40.441Z,6.14
2019-03-27T23:10:13.183Z,6.05
2019-03-27T23:12:45.534Z,6.00
2019-03-27T23:15:17.969Z,6.00
2019-03-27T23:17:50.375Z,5.98
2019-03-27T23:20:22.806Z,5.95
2019-03-27T23:22:55.216Z,5.95
2019-03-27T23:25:27.639Z,5.85
2019-03-27T23:28:00.025Z,5.83
2019-03-27T23:30:32.419Z,5.83
2019-03-27T23:33:04.780Z,5.80
2019-03-27T23:35:37.238Z,5.74
2019-03-27T23:38:09.622Z,5.65
2019-03-27T23:40:42.048Z,5.62
2019-03-27T23:43:14.425Z,5.56
2019-03-27T23:45:46.877Z,5.53
2019-03-27T23:48:19.231Z,5.51
2019-03-27T23:50:51.639Z,5.46
2019-03-27T23:53:24.272Z,5.42
2019-03-27T23:55:56.679Z,5.42
2019-03-27T23:58:30.113Z,5.38
